sensor_id;sensor_type;location;lat;lon;timestamp;temperature;humidity
47532;DHT22;33273;52.254;7.988;2023-02-08T00:00:34;-3.40;87.50
47532;DHT22;33273;52.254;7.988;2023-02-08T00:03:03;-3.40;87.50
47532;DHT22;33273;52.254;7.988;2023-02-08T00:05:32;-3.40;87.50
47532;DHT22;33273;52.254;7.988;2023-02-08T00:07:58;-3.40;87.50
47532;DHT22;33273;52.254;7.988;2023-02-08T00:10:24;-3.50;87.60
47532;DHT22;33273;52.254;7.988;2023-02-08T00:12:49;-3.50;87.60
47532;DHT22;33273;52.254;7.988;2023-02-08T00:15:17;-3.50;87.60
47532;DHT22;33273;52.254;7.988;2023-02-08T00:17:43;-3.50;87.60
47532;DHT22;33273;52.254;7.988;2023-02-08T00:20:10;-3.50;87.60
47532;DHT22;33273;52.254;7.988;2023-02-08T00:22:35;-3.50;88.40
47532;DHT22;33273;52.254;7.988;2023-02-08T00:25:04;-3.50;89.30
47532;DHT22;33273;52.254;7.988;2023-02-08T00:27:30;-3.50;89.90
47532;DHT22;33273;52.254;7.988;2023-02-08T00:29:56;-3.50;91.10
47532;DHT22;33273;52.254;7.988;2023-02-08T00:32:22;-3.40;91.50
47532;DHT22;33273;52.254;7.988;2023-02-08T00:34:49;-3.40;91.70
47532;DHT22;33273;52.254;7.988;2023-02-08T00:37:15;-3.40;91.70
47532;DHT22;33273;52.254;7.988;2023-02-08T00:39:41;-3.40;91.70
47532;DHT22;33273;52.254;7.988;2023-02-08T00:42:06;-3.40;92.30
47532;DHT22;33273;52.254;7.988;2023-02-08T00:44:32;-3.40;91.50
47532;DHT22;33273;52.254;7.988;2023-02-08T00:46:58;-3.40;91.50
47532;DHT22;33273;52.254;7.988;2023-02-08T00:49:24;-3.40;91.50
47532;DHT22;33273;52.254;7.988;2023-02-08T00:51:50;-3.40;91.30
47532;DHT22;33273;52.254;7.988;2023-02-08T00:54:19;-3.40;91.20
47532;DHT22;33273;52.254;7.988;2023-02-08T00:56:45;-3.40;91.20
47532;DHT22;33273;52.254;7.988;2023-02-08T00:59:11;-3.50;91.10
47532;DHT22;33273;52.254;7.988;2023-02-08T01:01:38;-3.50;91.00
47532;DHT22;33273;52.254;7.988;2023-02-08T01:04:05;-3.50;90.90
47532;DHT22;33273;52.254;7.988;2023-02-08T01:06:31;-3.50;90.80
47532;DHT22;33273;52.254;7.988;2023-02-08T01:08:57;-3.50;90.70
47532;DHT22;33273;52.254;7.988;2023-02-08T01:11:25;-3.50;90.40
47532;DHT22;33273;52.254;7.988;2023-02-08T01:13:52;-3.60;90.30
47532;DHT22;33273;52.254;7.988;2023-02-08T01:16:25;-3.60;90.20
47532;DHT22;33273;52.254;7.988;2023-02-08T01:18:53;-3.60;90.10
47532;DHT22;33273;52.254;7.988;2023-02-08T01:21:31;-3.60;89.90
47532;DHT22;33273;52.254;7.988;2023-02-08T01:23:57;-3.60;89.80
47532;DHT22;33273;52.254;7.988;2023-02-08T01:26:24;-3.60;89.70
47532;DHT22;33273;52.254;7.988;2023-02-08T01:28:51;-3.70;89.60
47532;DHT22;33273;52.254;7.988;2023-02-08T01:31:23;-3.70;89.60
47532;DHT22;33273;52.254;7.988;2023-02-08T01:33:49;-3.70;89.60
47532;DHT22;33273;52.254;7.988;2023-02-08T01:36:16;-3.70;89.60
47532;DHT22;33273;52.254;7.988;2023-02-08T01:38:43;-3.70;90.00
47532;DHT22;33273;52.254;7.988;2023-02-08T01:41:19;-3.70;91.40
47532;DHT22;33273;52.254;7.988;2023-02-08T01:46:47;-3.70;91.40
47532;DHT22;33273;52.254;7.988;2023-02-08T01:49:30;-3.70;91.30
47532;DHT22;33273;52.254;7.988;2023-02-08T01:54:29;-3.70;91.20
47532;DHT22;33273;52.254;7.988;2023-02-08T01:56:57;-3.80;91.00
47532;DHT22;33273;52.254;7.988;2023-02-08T01:59:49;-3.80;91.00
47532;DHT22;33273;52.254;7.988;2023-02-08T02:02:16;-3.80;90.80
47532;DHT22;33273;52.254;7.988;2023-02-08T02:04:43;-3.80;90.80
47532;DHT22;33273;52.254;7.988;2023-02-08T02:07:09;-3.80;90.70
47532;DHT22;33273;52.254;7.988;2023-02-08T02:10:20;-3.80;90.60
47532;DHT22;33273;52.254;7.988;2023-02-08T02:12:48;-3.90;90.40
47532;DHT22;33273;52.254;7.988;2023-02-08T02:15:15;-3.90;90.20
47532;DHT22;33273;52.254;7.988;2023-02-08T02:17:41;-3.90;90.00
47532;DHT22;33273;52.254;7.988;2023-02-08T02:20:23;-3.90;90.60
47532;DHT22;33273;52.254;7.988;2023-02-08T02:36:57;-4.00;88.90
47532;DHT22;33273;52.254;7.988;2023-02-08T02:42:28;-4.10;88.70
47532;DHT22;33273;52.254;7.988;2023-02-08T02:45:35;-4.10;88.60
47532;DHT22;33273;52.254;7.988;2023-02-08T02:48:22;-4.20;88.30
47532;DHT22;33273;52.254;7.988;2023-02-08T02:50:59;-4.20;88.40
47532;DHT22;33273;52.254;7.988;2023-02-08T02:56:01;-4.20;88.60
47532;DHT22;33273;52.254;7.988;2023-02-08T02:58:30;-4.20;88.60
47532;DHT22;33273;52.254;7.988;2023-02-08T03:00:58;-4.20;88.60
47532;DHT22;33273;52.254;7.988;2023-02-08T03:03:26;-4.20;88.50
47532;DHT22;33273;52.254;7.988;2023-02-08T03:05:58;-4.30;88.60
47532;DHT22;33273;52.254;7.988;2023-02-08T03:08:54;-4.20;90.50
47532;DHT22;33273;52.254;7.988;2023-02-08T03:11:35;-4.20;90.40
47532;DHT22;33273;52.254;7.988;2023-02-08T03:19:46;-4.30;90.20
47532;DHT22;33273;52.254;7.988;2023-02-08T03:22:25;-4.30;90.20
47532;DHT22;33273;52.254;7.988;2023-02-08T03:24:56;-4.40;89.90
47532;DHT22;33273;52.254;7.988;2023-02-08T03:27:34;-4.40;89.80
47532;DHT22;33273;52.254;7.988;2023-02-08T03:30:57;-4.40;89.70
47532;DHT22;33273;52.254;7.988;2023-02-08T03:33:35;-4.40;89.60
47532;DHT22;33273;52.254;7.988;2023-02-08T03:36:09;-4.40;89.50
47532;DHT22;33273;52.254;7.988;2023-02-08T03:38:41;-4.50;89.60
47532;DHT22;33273;52.254;7.988;2023-02-08T03:41:11;-4.50;89.60
47532;DHT22;33273;52.254;7.988;2023-02-08T03:43:45;-4.50;89.70
47532;DHT22;33273;52.254;7.988;2023-02-08T03:48:58;-4.50;89.80
47532;DHT22;33273;52.254;7.988;2023-02-08T03:51:27;-4.50;89.60
47532;DHT22;33273;52.254;7.988;2023-02-08T03:53:57;-4.60;89.90
47532;DHT22;33273;52.254;7.988;2023-02-08T03:56:53;-4.60;89.90
47532;DHT22;33273;52.254;7.988;2023-02-08T03:59:24;-4.60;90.00
47532;DHT22;33273;52.254;7.988;2023-02-08T04:01:58;-4.60;90.00
47532;DHT22;33273;52.254;7.988;2023-02-08T04:04:30;-4.60;90.00
47532;DHT22;33273;52.254;7.988;2023-02-08T04:06:57;-4.60;90.10
47532;DHT22;33273;52.254;7.988;2023-02-08T04:09:24;-4.60;90.10
47532;DHT22;33273;52.254;7.988;2023-02-08T04:11:50;-4.60;90.00
47532;DHT22;33273;52.254;7.988;2023-02-08T04:14:16;-4.70;89.90
47532;DHT22;33273;52.254;7.988;2023-02-08T04:16:42;-4.70;89.80
47532;DHT22;33273;52.254;7.988;2023-02-08T04:19:08;-4.70;89.80
47532;DHT22;33273;52.254;7.988;2023-02-08T04:21:34;-4.70;89.70
47532;DHT22;33273;52.254;7.988;2023-02-08T04:23:59;-4.80;89.50
47532;DHT22;33273;52.254;7.988;2023-02-08T04:26:26;-4.80;89.50
47532;DHT22;33273;52.254;7.988;2023-02-08T04:28:52;-4.80;89.40
47532;DHT22;33273;52.254;7.988;2023-02-08T04:31:17;-4.70;89.40
47532;DHT22;33273;52.254;7.988;2023-02-08T04:33:43;-4.80;89.20
47532;DHT22;33273;52.254;7.988;2023-02-08T04:36:09;-4.80;89.20
47532;DHT22;33273;52.254;7.988;2023-02-08T04:38:35;-4.80;89.10
47532;DHT22;33273;52.254;7.988;2023-02-08T04:41:01;-4.80;89.00
47532;DHT22;33273;52.254;7.988;2023-02-08T04:43:27;-4.80;88.90
47532;DHT22;33273;52.254;7.988;2023-02-08T04:45:54;-4.80;88.90
47532;DHT22;33273;52.254;7.988;2023-02-08T04:48:19;-4.90;88.80
47532;DHT22;33273;52.254;7.988;2023-02-08T04:50:45;-4.90;88.80
47532;DHT22;33273;52.254;7.988;2023-02-08T04:53:11;-4.90;88.50
47532;DHT22;33273;52.254;7.988;2023-02-08T04:55:37;-4.90;88.60
47532;DHT22;33273;52.254;7.988;2023-02-08T04:58:04;-4.90;88.50
47532;DHT22;33273;52.254;7.988;2023-02-08T05:00:30;-4.90;88.50
47532;DHT22;33273;52.254;7.988;2023-02-08T05:02:57;-4.90;88.30
47532;DHT22;33273;52.254;7.988;2023-02-08T05:05:26;-5.00;88.20
47532;DHT22;33273;52.254;7.988;2023-02-08T05:07:52;-5.00;88.20
47532;DHT22;33273;52.254;7.988;2023-02-08T05:10:19;-5.00;88.10
47532;DHT22;33273;52.254;7.988;2023-02-08T05:12:45;-5.00;87.90
47532;DHT22;33273;52.254;7.988;2023-02-08T05:15:11;-5.00;87.90
47532;DHT22;33273;52.254;7.988;2023-02-08T05:17:37;-5.00;87.90
47532;DHT22;33273;52.254;7.988;2023-02-08T05:20:04;-5.00;87.80
47532;DHT22;33273;52.254;7.988;2023-02-08T05:22:31;-5.10;87.80
47532;DHT22;33273;52.254;7.988;2023-02-08T05:24:57;-5.10;87.80
47532;DHT22;33273;52.254;7.988;2023-02-08T05:27:23;-5.10;87.80
47532;DHT22;33273;52.254;7.988;2023-02-08T05:29:50;-5.10;87.70
47532;DHT22;33273;52.254;7.988;2023-02-08T05:32:17;-5.10;87.70
47532;DHT22;33273;52.254;7.988;2023-02-08T05:34:43;-5.10;87.70
47532;DHT22;33273;52.254;7.988;2023-02-08T05:37:09;-5.10;87.70
47532;DHT22;33273;52.254;7.988;2023-02-08T05:39:36;-5.10;87.70
47532;DHT22;33273;52.254;7.988;2023-02-08T05:42:02;-4.70;93.10
47532;DHT22;33273;52.254;7.988;2023-02-08T05:44:28;-4.70;93.10
47532;DHT22;33273;52.254;7.988;2023-02-08T05:46:54;-4.70;92.70
47532;DHT22;33273;52.254;7.988;2023-02-08T05:49:20;-4.80;92.60
47532;DHT22;33273;52.254;7.988;2023-02-08T05:51:46;-4.80;92.60
47532;DHT22;33273;52.254;7.988;2023-02-08T05:54:12;-4.90;92.60
47532;DHT22;33273;52.254;7.988;2023-02-08T05:56:38;-4.70;94.40
47532;DHT22;33273;52.254;7.988;2023-02-08T05:59:04;-4.70;94.90
47532;DHT22;33273;52.254;7.988;2023-02-08T06:01:29;-4.80;94.70
47532;DHT22;33273;52.254;7.988;2023-02-08T06:03:57;-4.80;94.50
47532;DHT22;33273;52.254;7.988;2023-02-08T06:06:25;-4.80;94.40
47532;DHT22;33273;52.254;7.988;2023-02-08T06:08:51;-4.90;94.50
47532;DHT22;33273;52.254;7.988;2023-02-08T06:11:17;-4.90;94.40
47532;DHT22;33273;52.254;7.988;2023-02-08T06:13:45;-4.90;94.40
47532;DHT22;33273;52.254;7.988;2023-02-08T06:16:13;-4.90;94.80
47532;DHT22;33273;52.254;7.988;2023-02-08T06:18:39;-4.80;95.90
47532;DHT22;33273;52.254;7.988;2023-02-08T06:21:05;-4.70;97.00
47532;DHT22;33273;52.254;7.988;2023-02-08T06:23:32;-4.70;97.20
47532;DHT22;33273;52.254;7.988;2023-02-08T06:25:58;-4.70;97.00
47532;DHT22;33273;52.254;7.988;2023-02-08T06:28:24;-4.70;97.00
47532;DHT22;33273;52.254;7.988;2023-02-08T06:30:50;-4.80;96.70
47532;DHT22;33273;52.254;7.988;2023-02-08T06:33:17;-4.80;96.60
47532;DHT22;33273;52.254;7.988;2023-02-08T06:35:45;-4.80;96.60
47532;DHT22;33273;52.254;7.988;2023-02-08T06:38:11;-4.80;96.60
47532;DHT22;33273;52.254;7.988;2023-02-08T06:40:37;-4.80;96.50
47532;DHT22;33273;52.254;7.988;2023-02-08T06:43:04;-4.80;96.50
47532;DHT22;33273;52.254;7.988;2023-02-08T06:45:30;-4.80;96.50
47532;DHT22;33273;52.254;7.988;2023-02-08T06:47:55;-4.80;96.50
47532;DHT22;33273;52.254;7.988;2023-02-08T06:50:21;-4.80;96.60
47532;DHT22;33273;52.254;7.988;2023-02-08T06:52:47;-4.70;97.10
47532;DHT22;33273;52.254;7.988;2023-02-08T06:55:13;-4.70;97.10
47532;DHT22;33273;52.254;7.988;2023-02-08T06:57:39;-4.70;97.30
47532;DHT22;33273;52.254;7.988;2023-02-08T07:00:06;-4.60;97.40
47532;DHT22;33273;52.254;7.988;2023-02-08T07:02:32;-4.60;97.40
47532;DHT22;33273;52.254;7.988;2023-02-08T07:04:57;-4.60;97.40
47532;DHT22;33273;52.254;7.988;2023-02-08T07:07:23;-4.60;97.40
47532;DHT22;33273;52.254;7.988;2023-02-08T07:09:50;-4.60;97.30
47532;DHT22;33273;52.254;7.988;2023-02-08T07:12:16;-4.60;97.40
47532;DHT22;33273;52.254;7.988;2023-02-08T07:14:43;-4.60;97.50
47532;DHT22;33273;52.254;7.988;2023-02-08T07:17:10;-4.60;97.40
47532;DHT22;33273;52.254;7.988;2023-02-08T07:19:37;-4.50;97.60
47532;DHT22;33273;52.254;7.988;2023-02-08T07:22:03;-4.50;97.70
47532;DHT22;33273;52.254;7.988;2023-02-08T07:24:37;-4.50;97.70
47532;DHT22;33273;52.254;7.988;2023-02-08T07:27:04;-4.50;97.60
47532;DHT22;33273;52.254;7.988;2023-02-08T07:29:31;-4.40;97.70
47532;DHT22;33273;52.254;7.988;2023-02-08T07:32:00;-4.40;97.60
47532;DHT22;33273;52.254;7.988;2023-02-08T07:34:31;-4.40;97.60
47532;DHT22;33273;52.254;7.988;2023-02-08T07:36:57;-4.40;97.60
47532;DHT22;33273;52.254;7.988;2023-02-08T07:39:23;-4.40;97.60
47532;DHT22;33273;52.254;7.988;2023-02-08T07:41:49;-4.40;97.60
47532;DHT22;33273;52.254;7.988;2023-02-08T07:44:16;-4.40;97.60
47532;DHT22;33273;52.254;7.988;2023-02-08T07:46:42;-4.40;97.60
47532;DHT22;33273;52.254;7.988;2023-02-08T07:49:10;-4.30;97.90
47532;DHT22;33273;52.254;7.988;2023-02-08T07:51:36;-4.30;98.20
47532;DHT22;33273;52.254;7.988;2023-02-08T07:54:02;-4.20;98.30
47532;DHT22;33273;52.254;7.988;2023-02-08T07:56:28;-4.10;98.40
47532;DHT22;33273;52.254;7.988;2023-02-08T07:58:54;-4.00;98.40
47532;DHT22;33273;52.254;7.988;2023-02-08T08:01:20;-4.00;98.40
47532;DHT22;33273;52.254;7.988;2023-02-08T08:03:48;-3.90;98.50
47532;DHT22;33273;52.254;7.988;2023-02-08T08:06:14;-3.90;98.30
47532;DHT22;33273;52.254;7.988;2023-02-08T08:08:40;-3.80;98.30
47532;DHT22;33273;52.254;7.988;2023-02-08T08:11:07;-3.70;98.30
47532;DHT22;33273;52.254;7.988;2023-02-08T08:13:33;-3.70;98.10
47532;DHT22;33273;52.254;7.988;2023-02-08T08:16:00;-3.60;98.00
47532;DHT22;33273;52.254;7.988;2023-02-08T08:18:26;-3.50;98.00
47532;DHT22;33273;52.254;7.988;2023-02-08T08:20:52;-3.50;97.90
47532;DHT22;33273;52.254;7.988;2023-02-08T08:23:21;-3.40;98.40
47532;DHT22;33273;52.254;7.988;2023-02-08T08:25:47;-3.30;97.80
47532;DHT22;33273;52.254;7.988;2023-02-08T08:28:14;-3.30;97.60
47532;DHT22;33273;52.254;7.988;2023-02-08T08:30:44;-3.10;97.80
47532;DHT22;33273;52.254;7.988;2023-02-08T08:33:11;-3.00;97.40
47532;DHT22;33273;52.254;7.988;2023-02-08T08:35:38;-2.90;97.10
47532;DHT22;33273;52.254;7.988;2023-02-08T08:38:05;-2.80;96.60
47532;DHT22;33273;52.254;7.988;2023-02-08T08:40:31;-2.70;96.10
47532;DHT22;33273;52.254;7.988;2023-02-08T08:42:57;-2.60;95.90
47532;DHT22;33273;52.254;7.988;2023-02-08T08:45:23;-2.50;95.50
47532;DHT22;33273;52.254;7.988;2023-02-08T08:47:49;-2.40;94.70
47532;DHT22;33273;52.254;7.988;2023-02-08T08:50:15;-2.30;94.40
47532;DHT22;33273;52.254;7.988;2023-02-08T08:52:42;-2.20;92.70
47532;DHT22;33273;52.254;7.988;2023-02-08T08:55:08;-2.10;91.50
47532;DHT22;33273;52.254;7.988;2023-02-08T08:57:34;-2.00;91.10
47532;DHT22;33273;52.254;7.988;2023-02-08T09:00:00;-2.00;90.70
47532;DHT22;33273;52.254;7.988;2023-02-08T09:02:26;-1.90;90.70
47532;DHT22;33273;52.254;7.988;2023-02-08T09:04:52;-1.80;90.20
47532;DHT22;33273;52.254;7.988;2023-02-08T09:07:19;-1.80;89.80
47532;DHT22;33273;52.254;7.988;2023-02-08T09:09:48;-1.70;89.50
47532;DHT22;33273;52.254;7.988;2023-02-08T09:12:14;-1.60;88.70
47532;DHT22;33273;52.254;7.988;2023-02-08T09:14:40;-1.40;87.60
47532;DHT22;33273;52.254;7.988;2023-02-08T09:17:11;-1.30;86.70
47532;DHT22;33273;52.254;7.988;2023-02-08T09:19:37;-1.20;85.90
47532;DHT22;33273;52.254;7.988;2023-02-08T09:22:05;-1.20;85.20
47532;DHT22;33273;52.254;7.988;2023-02-08T09:24:39;-1.10;84.80
47532;DHT22;33273;52.254;7.988;2023-02-08T09:27:05;-1.00;84.50
47532;DHT22;33273;52.254;7.988;2023-02-08T09:29:31;-0.90;84.60
47532;DHT22;33273;52.254;7.988;2023-02-08T09:31:58;-0.80;84.90
47532;DHT22;33273;52.254;7.988;2023-02-08T09:34:24;-0.70;83.90
47532;DHT22;33273;52.254;7.988;2023-02-08T09:36:51;-0.50;82.30
47532;DHT22;33273;52.254;7.988;2023-02-08T09:39:20;-0.40;80.50
47532;DHT22;33273;52.254;7.988;2023-02-08T09:48:14;-0.10;79.20
47532;DHT22;33273;52.254;7.988;2023-02-08T09:53:49;0.10;78.90
47532;DHT22;33273;52.254;7.988;2023-02-08T09:56:25;0.20;77.00
47532;DHT22;33273;52.254;7.988;2023-02-08T09:58:53;0.30;74.90
47532;DHT22;33273;52.254;7.988;2023-02-08T10:01:25;0.40;73.70
47532;DHT22;33273;52.254;7.988;2023-02-08T10:03:59;0.50;73.60
47532;DHT22;33273;52.254;7.988;2023-02-08T10:06:26;0.60;73.80
47532;DHT22;33273;52.254;7.988;2023-02-08T10:08:53;0.60;74.10
47532;DHT22;33273;52.254;7.988;2023-02-08T10:20:39;1.30;59.20
47532;DHT22;33273;52.254;7.988;2023-02-08T10:25:40;1.60;57.40
47532;DHT22;33273;52.254;7.988;2023-02-08T10:34:01;1.90;55.10
47532;DHT22;33273;52.254;7.988;2023-02-08T10:36:32;2.00;55.10
47532;DHT22;33273;52.254;7.988;2023-02-08T10:39:02;2.10;56.50
47532;DHT22;33273;52.254;7.988;2023-02-08T10:41:34;2.20;54.90
47532;DHT22;33273;52.254;7.988;2023-02-08T10:44:12;2.20;56.10
47532;DHT22;33273;52.254;7.988;2023-02-08T10:46:49;2.30;55.70
47532;DHT22;33273;52.254;7.988;2023-02-08T10:49:21;2.40;53.50
47532;DHT22;33273;52.254;7.988;2023-02-08T10:51:50;2.50;53.60
47532;DHT22;33273;52.254;7.988;2023-02-08T10:54:20;2.50;53.20
47532;DHT22;33273;52.254;7.988;2023-02-08T10:56:53;2.60;54.60
47532;DHT22;33273;52.254;7.988;2023-02-08T10:59:26;2.60;53.70
47532;DHT22;33273;52.254;7.988;2023-02-08T11:01:53;2.70;53.70
47532;DHT22;33273;52.254;7.988;2023-02-08T11:04:21;2.80;53.00
47532;DHT22;33273;52.254;7.988;2023-02-08T11:06:48;2.90;52.30
47532;DHT22;33273;52.254;7.988;2023-02-08T11:09:34;3.00;51.30
47532;DHT22;33273;52.254;7.988;2023-02-08T11:12:01;3.10;50.70
47532;DHT22;33273;52.254;7.988;2023-02-08T11:16:57;3.30;47.60
47532;DHT22;33273;52.254;7.988;2023-02-08T11:19:38;3.50;47.20
47532;DHT22;33273;52.254;7.988;2023-02-08T11:22:15;3.60;45.80
47532;DHT22;33273;52.254;7.988;2023-02-08T11:24:44;3.70;45.30
47532;DHT22;33273;52.254;7.988;2023-02-08T11:27:32;3.70;45.10
47532;DHT22;33273;52.254;7.988;2023-02-08T11:32:36;3.90;43.80
47532;DHT22;33273;52.254;7.988;2023-02-08T11:35:22;3.90;
47532;DHT22;33273;52.254;7.988;2023-02-08T11:37:53;4.10;43.30
47532;DHT22;33273;52.254;7.988;2023-02-08T11:40:27;4.20;42.50
47532;DHT22;33273;52.254;7.988;2023-02-08T11:42:53;4.20;40.50
47532;DHT22;33273;52.254;7.988;2023-02-08T11:45:28;4.30;39.00
47532;DHT22;33273;52.254;7.988;2023-02-08T11:47:56;4.40;39.90
47532;DHT22;33273;52.254;7.988;2023-02-08T11:50:31;4.50;39.50
47532;DHT22;33273;52.254;7.988;2023-02-08T11:53:20;4.60;39.50
47532;DHT22;33273;52.254;7.988;2023-02-08T11:56:22;4.60;38.80
47532;DHT22;33273;52.254;7.988;2023-02-08T12:01:43;4.70;38.80
47532;DHT22;33273;52.254;7.988;2023-02-08T12:04:10;4.70;40.00
47532;DHT22;33273;52.254;7.988;2023-02-08T12:09:22;4.80;37.80
47532;DHT22;33273;52.254;7.988;2023-02-08T12:20:36;5.00;34.60
47532;DHT22;33273;52.254;7.988;2023-02-08T12:34:26;5.20;28.70
47532;DHT22;33273;52.254;7.988;2023-02-08T12:37:03;5.20;28.80
47532;DHT22;33273;52.254;7.988;2023-02-08T12:40:08;5.20;32.00
47532;DHT22;33273;52.254;7.988;2023-02-08T12:51:43;5.40;29.20
47532;DHT22;33273;52.254;7.988;2023-02-08T12:54:38;5.50;29.30
47532;DHT22;33273;52.254;7.988;2023-02-08T12:57:06;5.50;28.30
47532;DHT22;33273;52.254;7.988;2023-02-08T12:59:48;5.60;28.30
47532;DHT22;33273;52.254;7.988;2023-02-08T13:02:44;5.60;28.30
47532;DHT22;33273;52.254;7.988;2023-02-08T13:05:15;5.80;30.30
47532;DHT22;33273;52.254;7.988;2023-02-08T13:07:44;5.80;31.00
47532;DHT22;33273;52.254;7.988;2023-02-08T13:10:32;5.90;31.30
47532;DHT22;33273;52.254;7.988;2023-02-08T13:13:20;5.90;31.90
47532;DHT22;33273;52.254;7.988;2023-02-08T13:16:00;5.90;30.30
47532;DHT22;33273;52.254;7.988;2023-02-08T13:18:34;6.00;30.00
47532;DHT22;33273;52.254;7.988;2023-02-08T13:21:06;6.00;30.20
47532;DHT22;33273;52.254;7.988;2023-02-08T13:23:37;6.00;29.70
47532;DHT22;33273;52.254;7.988;2023-02-08T13:26:26;6.10;29.10
47532;DHT22;33273;52.254;7.988;2023-02-08T13:28:55;6.10;29.90
47532;DHT22;33273;52.254;7.988;2023-02-08T13:31:36;6.10;30.00
47532;DHT22;33273;52.254;7.988;2023-02-08T13:34:33;6.10;29.30
47532;DHT22;33273;52.254;7.988;2023-02-08T13:37:02;6.10;29.30
47532;DHT22;33273;52.254;7.988;2023-02-08T13:39:38;6.10;29.90
47532;DHT22;33273;52.254;7.988;2023-02-08T13:44:54;6.10;30.00
47532;DHT22;33273;52.254;7.988;2023-02-08T13:47:30;6.20;30.40
47532;DHT22;33273;52.254;7.988;2023-02-08T13:50:04;6.20;30.40
47532;DHT22;33273;52.254;7.988;2023-02-08T13:58:02;6.20;30.50
47532;DHT22;33273;52.254;7.988;2023-02-08T14:00:31;6.30;29.70
47532;DHT22;33273;52.254;7.988;2023-02-08T14:14:17;6.30;31.00
47532;DHT22;33273;52.254;7.988;2023-02-08T14:16:45;6.20;30.00
47532;DHT22;33273;52.254;7.988;2023-02-08T14:19:33;6.20;30.50
47532;DHT22;33273;52.254;7.988;2023-02-08T14:22:04;6.20;31.20
47532;DHT22;33273;52.254;7.988;2023-02-08T14:24:33;6.20;31.10
47532;DHT22;33273;52.254;7.988;2023-02-08T14:27:34;6.20;31.20
47532;DHT22;33273;52.254;7.988;2023-02-08T14:32:31;6.20;31.50
47532;DHT22;33273;52.254;7.988;2023-02-08T14:35:22;6.20;32.00
47532;DHT22;33273;52.254;7.988;2023-02-08T14:40:48;6.20;32.90
47532;DHT22;33273;52.254;7.988;2023-02-08T14:45:46;6.20;33.60
47532;DHT22;33273;52.254;7.988;2023-02-08T14:58:50;6.20;34.10
47532;DHT22;33273;52.254;7.988;2023-02-08T15:03:50;6.20;33.70
47532;DHT22;33273;52.254;7.988;2023-02-08T15:08:53;6.10;32.90
47532;DHT22;33273;52.254;7.988;2023-02-08T15:11:25;6.10;32.00
47532;DHT22;33273;52.254;7.988;2023-02-08T15:13:54;6.10;31.20
47532;DHT22;33273;52.254;7.988;2023-02-08T15:18:50;6.00;29.10
47532;DHT22;33273;52.254;7.988;2023-02-08T15:21:18;5.90;28.90
47532;DHT22;33273;52.254;7.988;2023-02-08T15:24:02;5.80;29.50
47532;DHT22;33273;52.254;7.988;2023-02-08T15:26:28;5.80;30.90
47532;DHT22;33273;52.254;7.988;2023-02-08T15:28:55;5.80;30.50
47532;DHT22;33273;52.254;7.988;2023-02-08T15:31:25;5.70;31.00
47532;DHT22;33273;52.254;7.988;2023-02-08T15:33:53;5.60;31.30
47532;DHT22;33273;52.254;7.988;2023-02-08T15:38:50;5.60;32.40
47532;DHT22;33273;52.254;7.988;2023-02-08T15:41:26;5.60;33.00
47532;DHT22;33273;52.254;7.988;2023-02-08T15:44:19;5.50;33.00
47532;DHT22;33273;52.254;7.988;2023-02-08T15:46:46;5.50;34.00
47532;DHT22;33273;52.254;7.988;2023-02-08T15:49:19;5.40;33.50
47532;DHT22;33273;52.254;7.988;2023-02-08T15:51:47;5.40;33.50
47532;DHT22;33273;52.254;7.988;2023-02-08T15:54:17;5.30;33.70
47532;DHT22;33273;52.254;7.988;2023-02-08T15:56:53;5.20;33.20
47532;DHT22;33273;52.254;7.988;2023-02-08T15:59:32;5.10;33.60
47532;DHT22;33273;52.254;7.988;2023-02-08T16:02:28;5.00;34.10
47532;DHT22;33273;52.254;7.988;2023-02-08T16:04:55;5.00;34.50
47532;DHT22;33273;52.254;7.988;2023-02-08T16:07:35;4.90;34.70
47532;DHT22;33273;52.254;7.988;2023-02-08T16:10:05;4.90;34.50
47532;DHT22;33273;52.254;7.988;2023-02-08T16:12:33;4.80;33.90
47532;DHT22;33273;52.254;7.988;2023-02-08T16:15:01;4.70;34.20
47532;DHT22;33273;52.254;7.988;2023-02-08T16:17:42;4.70;34.50
47532;DHT22;33273;52.254;7.988;2023-02-08T16:20:32;4.70;34.40
47532;DHT22;33273;52.254;7.988;2023-02-08T16:25:50;4.50;35.10
47532;DHT22;33273;52.254;7.988;2023-02-08T16:28:28;4.40;36.00
47532;DHT22;33273;52.254;7.988;2023-02-08T16:31:00;4.30;35.60
47532;DHT22;33273;52.254;7.988;2023-02-08T16:33:27;4.20;36.10
47532;DHT22;33273;52.254;7.988;2023-02-08T16:35:54;4.10;36.70
47532;DHT22;33273;52.254;7.988;2023-02-08T16:38:28;4.00;36.70
47532;DHT22;33273;52.254;7.988;2023-02-08T16:40:56;3.90;37.40
47532;DHT22;33273;52.254;7.988;2023-02-08T16:43:31;3.80;35.30
47532;DHT22;33273;52.254;7.988;2023-02-08T16:48:40;3.60;36.70
47532;DHT22;33273;52.254;7.988;2023-02-08T16:51:25;3.50;37.60
47532;DHT22;33273;52.254;7.988;2023-02-08T16:54:00;3.40;37.80
47532;DHT22;33273;52.254;7.988;2023-02-08T16:56:27;3.30;37.00
47532;DHT22;33273;52.254;7.988;2023-02-08T16:58:53;3.20;36.70
47532;DHT22;33273;52.254;7.988;2023-02-08T17:01:21;3.10;36.60
47532;DHT22;33273;52.254;7.988;2023-02-08T17:03:48;3.00;37.10
47532;DHT22;33273;52.254;7.988;2023-02-08T17:06:40;2.90;37.90
47532;DHT22;33273;52.254;7.988;2023-02-08T17:09:08;2.90;38.70
47532;DHT22;33273;52.254;7.988;2023-02-08T17:11:36;2.90;40.00
47532;DHT22;33273;52.254;7.988;2023-02-08T17:14:03;2.80;55.70
47532;DHT22;33273;52.254;7.988;2023-02-08T17:16:31;2.80;57.60
47532;DHT22;33273;52.254;7.988;2023-02-08T17:18:59;2.80;60.90
47532;DHT22;33273;52.254;7.988;2023-02-08T17:21:27;2.70;55.30
47532;DHT22;33273;52.254;7.988;2023-02-08T17:23:54;2.60;52.40
47532;DHT22;33273;52.254;7.988;2023-02-08T17:26:23;2.50;51.40
47532;DHT22;33273;52.254;7.988;2023-02-08T17:28:56;2.50;52.20
47532;DHT22;33273;52.254;7.988;2023-02-08T17:31:25;2.50;53.70
47532;DHT22;33273;52.254;7.988;2023-02-08T17:33:51;2.50;55.70
47532;DHT22;33273;52.254;7.988;2023-02-08T17:36:17;2.40;54.50
47532;DHT22;33273;52.254;7.988;2023-02-08T17:38:44;2.30;51.80
47532;DHT22;33273;52.254;7.988;2023-02-08T17:41:29;2.20;50.40
47532;DHT22;33273;52.254;7.988;2023-02-08T17:43:55;2.00;49.10
47532;DHT22;33273;52.254;7.988;2023-02-08T17:46:25;2.00;48.50
47532;DHT22;33273;52.254;7.988;2023-02-08T17:48:53;1.90;48.60
47532;DHT22;33273;52.254;7.988;2023-02-08T17:51:23;1.80;49.10
47532;DHT22;33273;52.254;7.988;2023-02-08T17:53:50;1.70;49.50
47532;DHT22;33273;52.254;7.988;2023-02-08T17:56:18;1.60;49.30
47532;DHT22;33273;52.254;7.988;2023-02-08T17:58:45;1.40;49.20
47532;DHT22;33273;52.254;7.988;2023-02-08T18:01:17;1.30;48.90
47532;DHT22;33273;52.254;7.988;2023-02-08T18:03:46;1.30;48.90
47532;DHT22;33273;52.254;7.988;2023-02-08T18:06:14;1.20;49.00
47532;DHT22;33273;52.254;7.988;2023-02-08T18:08:41;1.10;49.40
47532;DHT22;33273;52.254;7.988;2023-02-08T18:11:11;1.10;52.40
47532;DHT22;33273;52.254;7.988;2023-02-08T18:13:38;1.00;51.80
47532;DHT22;33273;52.254;7.988;2023-02-08T18:16:14;1.00;51.30
47532;DHT22;33273;52.254;7.988;2023-02-08T18:18:41;0.90;50.80
47532;DHT22;33273;52.254;7.988;2023-02-08T18:21:11;0.90;50.50
47532;DHT22;33273;52.254;7.988;2023-02-08T18:23:41;0.80;49.90
47532;DHT22;33273;52.254;7.988;2023-02-08T18:26:14;0.80;49.90
47532;DHT22;33273;52.254;7.988;2023-02-08T18:28:40;0.70;50.00
47532;DHT22;33273;52.254;7.988;2023-02-08T18:31:10;0.70;50.40